sensor_id;sensor_type;location;lat;lon;timestamp;pressure;altitude;pressure_sealevel;temperature;humidity
15229;BME280;7717;47.792;12.076;2022-12-18T00:01:05;97298.69;;;-5.88;100.00
15229;BME280;7717;47.792;12.076;2022-12-18T00:03:39;97308.53;;;-5.79;100.00
15229;BME280;7717;47.792;12.076;2022-12-18T00:06:04;97300.91;;;-5.81;100.00
15229;BME280;7717;47.792;12.076;2022-12-18T00:08:30;97302.00;;;-5.77;100.00
15229;BME280;7717;47.792;12.076;2022-12-18T00:10:55;97305.44;;;-5.65;100.00
15229;BME280;7717;47.792;12.076;2022-12-18T00:13:20;97306.66;;;-5.60;100.00
15229;BME280;7717;47.792;12.076;2022-12-18T00:15:46;97305.50;;;-5.53;100.00
15229;BME280;7717;47.792;12.076;2022-12-18T00:18:11;97297.13;;;-5.53;100.00
15229;BME280;7717;47.792;12.076;2022-12-18T00:20:38;97301.25;;;-5.54;100.00
15229;BME280;7717;47.792;12.076;2022-12-18T00:23:05;97303.25;;;-5.50;100.00
15229;BME280;7717;47.792;12.076;2022-12-18T00:25:33;97304.63;;;-5.31;100.00
15229;BME280;7717;47.792;12.076;2022-12-18T00:27:59;97308.06;;;-5.07;100.00
15229;BME280;7717;47.792;12.076;2022-12-18T00:30:24;97300.00;;;-5.15;100.00
15229;BME280;7717;47.792;12.076;2022-12-18T00:32:50;97304.25;;;-5.14;100.00
15229;BME280;7717;47.792;12.076;2022-12-18T00:35:15;97296.66;;;-5.03;100.00
15229;BME280;7717;47.792;12.076;2022-12-18T00:37:40;97284.63;;;-5.09;100.00
15229;BME280;7717;47.792;12.076;2022-12-18T00:40:06;97292.22;;;-5.08;100.00
15229;BME280;7717;47.792;12.076;2022-12-18T00:42:32;97285.59;;;-5.07;100.00
15229;BME280;7717;47.792;12.076;2022-12-18T00:45:16;97293.25;;;-5.16;100.00
15229;BME280;7717;47.792;12.076;2022-12-18T00:47:41;97281.78;;;-5.14;100.00
15229;BME280;7717;47.792;12.076;2022-12-18T00:50:07;97297.44;;;-5.38;100.00
15229;BME280;7717;47.792;12.076;2022-12-18T00:52:33;97302.59;;;-5.13;100.00
15229;BME280;7717;47.792;12.076;2022-12-18T00:54:58;97300.94;;;-5.25;100.00
15229;BME280;7717;47.792;12.076;2022-12-18T00:57:24;97288.97;;;-5.40;100.00
15229;BME280;7717;47.792;12.076;2022-12-18T00:59:49;97303.81;;;-5.42;100.00
15229;BME280;7717;47.792;12.076;2022-12-18T01:02:14;97304.03;;;-5.61;100.00
15229;BME280;7717;47.792;12.076;2022-12-18T01:04:40;97302.31;;;-5.84;100.00
15229;BME280;7717;47.792;12.076;2022-12-18T01:07:05;97314.94;;;-5.93;100.00
15229;BME280;7717;47.792;12.076;2022-12-18T01:09:30;97311.41;;;-6.07;100.00
15229;BME280;7717;47.792;12.076;2022-12-18T01:11:56;97314.72;;;-6.28;100.00
15229;BME280;7717;47.792;12.076;2022-12-18T01:14:21;97303.78;;;-6.41;100.00
15229;BME280;7717;47.792;12.076;2022-12-18T01:16:47;97325.50;;;-6.50;100.00
15229;BME280;7717;47.792;12.076;2022-12-18T01:19:12;97330.25;;;-6.63;100.00
15229;BME280;7717;47.792;12.076;2022-12-18T01:21:37;97341.59;;;-6.67;100.00
15229;BME280;7717;47.792;12.076;2022-12-18T01:24:03;97341.09;;;-6.73;100.00
15229;BME280;7717;47.792;12.076;2022-12-18T01:26:29;97347.56;;;-6.85;100.00
15229;BME280;7717;47.792;12.076;2022-12-18T01:28:57;97347.94;;;-6.91;100.00
15229;BME280;7717;47.792;12.076;2022-12-18T01:31:29;97345.81;;;-7.17;100.00
15229;BME280;7717;47.792;12.076;2022-12-18T01:33:56;97353.66;;;-7.23;100.00
15229;BME280;7717;47.792;12.076;2022-12-18T01:38:48;97358.47;;;-7.45;100.00
15229;BME280;7717;47.792;12.076;2022-12-18T01:41:16;97365.16;;;-7.54;100.00
15229;BME280;7717;47.792;12.076;2022-12-18T01:43:48;97369.34;;;-7.64;100.00
15229;BME280;7717;47.792;12.076;2022-12-18T01:46:15;97370.47;;;-7.60;100.00
15229;BME280;7717;47.792;12.076;2022-12-18T01:48:40;97362.03;;;-7.62;100.00
15229;BME280;7717;47.792;12.076;2022-12-18T01:51:09;97369.81;;;-7.68;100.00
15229;BME280;7717;47.792;12.076;2022-12-18T01:53:36;97373.41;;;-7.74;100.00
15229;BME280;7717;47.792;12.076;2022-12-18T01:56:03;97373.41;;;-7.74;100.00
15229;BME280;7717;47.792;12.076;2022-12-18T01:58:51;97381.09;;;-7.82;100.00
15229;BME280;7717;47.792;12.076;2022-12-18T02:01:20;97361.31;;;-7.90;100.00
15229;BME280;7717;47.792;12.076;2022-12-18T02:03:47;97378.38;;;-7.74;100.00
15229;BME280;7717;47.792;12.076;2022-12-18T02:06:29;97388.19;;;-7.76;100.00
15229;BME280;7717;47.792;12.076;2022-12-18T02:09:23;97392.13;;;-7.88;100.00
15229;BME280;7717;47.792;12.076;2022-12-18T02:12:27;97388.84;;;-7.98;100.00
15229;BME280;7717;47.792;12.076;2022-12-18T02:15:06;97388.94;;;-8.25;100.00
15229;BME280;7717;47.792;12.076;2022-12-18T02:17:52;97388.38;;;-8.42;100.00
15229;BME280;7717;47.792;12.076;2022-12-18T02:20:21;97390.00;;;-8.13;100.00
15229;BME280;7717;47.792;12.076;2022-12-18T02:23:14;97382.16;;;-8.18;100.00
15229;BME280;7717;47.792;12.076;2022-12-18T02:25:58;97375.66;;;-8.26;100.00
15229;BME280;7717;47.792;12.076;2022-12-18T02:28:31;97373.06;;;-8.27;100.00
15229;BME280;7717;47.792;12.076;2022-12-18T02:31:01;97369.78;;;-8.37;100.00
15229;BME280;7717;47.792;12.076;2022-12-18T02:33:28;97375.97;;;-8.42;100.00
15229;BME280;7717;47.792;12.076;2022-12-18T02:35:57;97368.56;;;-8.32;100.00
15229;BME280;7717;47.792;12.076;2022-12-18T02:38:24;97349.09;;;-8.56;100.00
15229;BME280;7717;47.792;12.076;2022-12-18T02:40:51;97377.44;;;-8.44;100.00
15229;BME280;7717;47.792;12.076;2022-12-18T02:43:18;97368.00;;;-8.38;100.00
15229;BME280;7717;47.792;12.076;2022-12-18T02:45:48;97373.28;;;-8.54;100.00
15229;BME280;7717;47.792;12.076;2022-12-18T02:48:16;97378.78;;;-8.66;100.00
15229;BME280;7717;47.792;12.076;2022-12-18T02:50:59;97377.31;;;-8.45;100.00
15229;BME280;7717;47.792;12.076;2022-12-18T02:56:09;97374.72;;;-8.37;100.00
15229;BME280;7717;47.792;12.076;2022-12-18T02:59:04;97381.63;;;-8.53;100.00
15229;BME280;7717;47.792;12.076;2022-12-18T03:01:46;97375.47;;;-8.38;100.00
15229;BME280;7717;47.792;12.076;2022-12-18T03:04:25;97365.25;;;-8.41;100.00
15229;BME280;7717;47.792;12.076;2022-12-18T03:06:58;97357.81;;;-8.51;100.00
15229;BME280;7717;47.792;12.076;2022-12-18T03:09:32;97371.09;;;-8.51;100.00
15229;BME280;7717;47.792;12.076;2022-12-18T03:12:10;97376.41;;;-8.56;100.00
15229;BME280;7717;47.792;12.076;2022-12-18T03:17:50;97369.94;;;-8.54;100.00
15229;BME280;7717;47.792;12.076;2022-12-18T03:20:19;97372.19;;;-8.85;100.00
15229;BME280;7717;47.792;12.076;2022-12-18T03:22:47;97372.47;;;-8.63;100.00
15229;BME280;7717;47.792;12.076;2022-12-18T03:25:16;97380.00;;;-8.72;100.00
15229;BME280;7717;47.792;12.076;2022-12-18T03:27:46;97377.72;;;-8.79;100.00
15229;BME280;7717;47.792;12.076;2022-12-18T03:30:16;97380.38;;;-8.86;100.00
15229;BME280;7717;47.792;12.076;2022-12-18T03:32:43;97381.94;;;-8.97;100.00
15229;BME280;7717;47.792;12.076;2022-12-18T03:35:13;97375.88;;;-9.09;100.00
15229;BME280;7717;47.792;12.076;2022-12-18T03:37:40;97377.19;;;-9.41;100.00
15229;BME280;7717;47.792;12.076;2022-12-18T03:40:06;97382.47;;;-9.55;100.00
15229;BME280;7717;47.792;12.076;2022-12-18T03:43:03;97380.75;;;-9.28;100.00
15229;BME280;7717;47.792;12.076;2022-12-18T03:45:37;97378.91;;;-8.84;100.00
15229;BME280;7717;47.792;12.076;2022-12-18T03:48:21;97374.06;;;-9.01;100.00
15229;BME280;7717;47.792;12.076;2022-12-18T03:51:02;97371.75;;;-9.09;100.00
15229;BME280;7717;47.792;12.076;2022-12-18T03:53:41;97366.63;;;-9.29;100.00
15229;BME280;7717;47.792;12.076;2022-12-18T03:56:11;97369.63;;;-9.51;100.00
15229;BME280;7717;47.792;12.076;2022-12-18T03:58:39;97366.44;;;-9.50;100.00
15229;BME280;7717;47.792;12.076;2022-12-18T04:01:08;97363.19;;;-9.77;100.00
15229;BME280;7717;47.792;12.076;2022-12-18T04:03:35;97361.53;;;-9.67;100.00
15229;BME280;7717;47.792;12.076;2022-12-18T04:06:01;97365.88;;;-9.56;100.00
15229;BME280;7717;47.792;12.076;2022-12-18T04:08:28;97362.91;;;-9.52;100.00
15229;BME280;7717;47.792;12.076;2022-12-18T04:10:54;97355.28;;;-9.72;100.00
15229;BME280;7717;47.792;12.076;2022-12-18T04:13:24;97359.66;;;-9.79;100.00
15229;BME280;7717;47.792;12.076;2022-12-18T04:15:52;97364.47;;;-9.71;100.00
15229;BME280;7717;47.792;12.076;2022-12-18T04:18:18;97370.63;;;-9.77;100.00
15229;BME280;7717;47.792;12.076;2022-12-18T04:20:43;97370.75;;;-9.75;100.00
15229;BME280;7717;47.792;12.076;2022-12-18T04:23:08;97375.94;;;-9.63;100.00
15229;BME280;7717;47.792;12.076;2022-12-18T04:25:34;97372.63;;;-9.72;100.00
15229;BME280;7717;47.792;12.076;2022-12-18T04:27:59;97370.19;;;-9.45;100.00
15229;BME280;7717;47.792;12.076;2022-12-18T04:30:24;97361.63;;;-9.48;100.00
15229;BME280;7717;47.792;12.076;2022-12-18T04:32:50;97364.47;;;-9.35;100.00
15229;BME280;7717;47.792;12.076;2022-12-18T04:35:15;97371.31;;;-9.32;100.00
15229;BME280;7717;47.792;12.076;2022-12-18T04:37:40;97376.50;;;-9.48;100.00
15229;BME280;7717;47.792;12.076;2022-12-18T04:40:06;97382.19;;;-9.58;100.00
15229;BME280;7717;47.792;12.076;2022-12-18T04:42:32;97386.00;;;-9.70;100.00
15229;BME280;7717;47.792;12.076;2022-12-18T04:44:57;97380.91;;;-9.63;100.00
15229;BME280;7717;47.792;12.076;2022-12-18T04:47:22;97379.06;;;-9.83;100.00
15229;BME280;7717;47.792;12.076;2022-12-18T04:49:48;97385.41;;;-9.59;100.00
15229;BME280;7717;47.792;12.076;2022-12-18T04:52:13;97398.66;;;-9.50;100.00
15229;BME280;7717;47.792;12.076;2022-12-18T04:54:39;97391.78;;;-9.44;100.00
15229;BME280;7717;47.792;12.076;2022-12-18T04:57:04;97389.75;;;-9.48;100.00
15229;BME280;7717;47.792;12.076;2022-12-18T04:59:29;97354.22;;;-9.57;100.00
15229;BME280;7717;47.792;12.076;2022-12-18T05:01:55;97391.22;;;-9.22;100.00
15229;BME280;7717;47.792;12.076;2022-12-18T05:04:20;97373.94;;;-9.39;100.00
15229;BME280;7717;47.792;12.076;2022-12-18T05:06:46;97394.13;;;-9.54;100.00
15229;BME280;7717;47.792;12.076;2022-12-18T05:09:11;97399.84;;;-9.64;100.00
15229;BME280;7717;47.792;12.076;2022-12-18T05:11:36;97395.09;;;-9.34;100.00
15229;BME280;7717;47.792;12.076;2022-12-18T05:14:02;97396.78;;;-9.25;100.00
15229;BME280;7717;47.792;12.076;2022-12-18T05:16:27;97399.66;;;-9.48;100.00
15229;BME280;7717;47.792;12.076;2022-12-18T05:18:53;97417.72;;;-9.49;100.00
15229;BME280;7717;47.792;12.076;2022-12-18T05:21:18;97430.81;;;-9.41;100.00
15229;BME280;7717;47.792;12.076;2022-12-18T05:23:43;97429.09;;;-9.42;100.00
15229;BME280;7717;47.792;12.076;2022-12-18T05:26:14;97423.31;;;-9.24;100.00
15229;BME280;7717;47.792;12.076;2022-12-18T05:28:39;97419.88;;;-9.07;100.00
15229;BME280;7717;47.792;12.076;2022-12-18T05:31:05;97425.50;;;-9.18;100.00
15229;BME280;7717;47.792;12.076;2022-12-18T05:33:32;97439.22;;;-9.21;100.00
15229;BME280;7717;47.792;12.076;2022-12-18T05:36:03;97441.78;;;-9.11;100.00
15229;BME280;7717;47.792;12.076;2022-12-18T05:38:29;97441.84;;;-9.20;100.00
15229;BME280;7717;47.792;12.076;2022-12-18T05:40:56;97445.69;;;-9.32;100.00
15229;BME280;7717;47.792;12.076;2022-12-18T05:43:24;97443.97;;;-9.06;100.00
15229;BME280;7717;47.792;12.076;2022-12-18T05:45:50;97416.81;;;-9.04;100.00
15229;BME280;7717;47.792;12.076;2022-12-18T05:48:16;97437.50;;;-8.95;100.00
15229;BME280;7717;47.792;12.076;2022-12-18T05:50:43;97441.72;;;-8.94;100.00
15229;BME280;7717;47.792;12.076;2022-12-18T05:53:11;97442.59;;;-8.93;100.00
15229;BME280;7717;47.792;12.076;2022-12-18T05:55:39;97450.41;;;-9.08;100.00
15229;BME280;7717;47.792;12.076;2022-12-18T05:58:07;97445.88;;;-9.12;100.00
15229;BME280;7717;47.792;12.076;2022-12-18T06:00:34;97452.34;;;-9.23;100.00
15229;BME280;7717;47.792;12.076;2022-12-18T06:03:00;97448.56;;;-9.28;100.00
15229;BME280;7717;47.792;12.076;2022-12-18T06:05:26;97443.84;;;-9.16;100.00
15229;BME280;7717;47.792;12.076;2022-12-18T06:07:52;97441.75;;;-9.02;100.00
15229;BME280;7717;47.792;12.076;2022-12-18T06:10:17;97447.88;;;-8.71;100.00
15229;BME280;7717;47.792;12.076;2022-12-18T06:12:42;97443.31;;;-8.66;100.00
15229;BME280;7717;47.792;12.076;2022-12-18T06:15:08;97441.66;;;-8.57;100.00
15229;BME280;7717;47.792;12.076;2022-12-18T06:17:35;97456.97;;;-8.53;100.00
15229;BME280;7717;47.792;12.076;2022-12-18T06:20:00;97460.91;;;-8.36;100.00
15229;BME280;7717;47.792;12.076;2022-12-18T06:22:26;97460.97;;;-8.25;100.00
15229;BME280;7717;47.792;12.076;2022-12-18T06:24:53;97463.31;;;-8.27;100.00
15229;BME280;7717;47.792;12.076;2022-12-18T06:27:18;97454.91;;;-8.38;100.00
15229;BME280;7717;47.792;12.076;2022-12-18T06:29:44;97453.88;;;-8.31;100.00
15229;BME280;7717;47.792;12.076;2022-12-18T06:32:09;97461.03;;;-8.34;100.00
15229;BME280;7717;47.792;12.076;2022-12-18T06:34:37;97458.50;;;-8.44;100.00
15229;BME280;7717;47.792;12.076;2022-12-18T06:37:02;97462.34;;;-8.38;100.00
15229;BME280;7717;47.792;12.076;2022-12-18T06:39:27;97463.97;;;-8.19;100.00
15229;BME280;7717;47.792;12.076;2022-12-18T06:41:53;97461.19;;;-8.14;100.00
15229;BME280;7717;47.792;12.076;2022-12-18T06:44:19;97462.53;;;-7.98;100.00
15229;BME280;7717;47.792;12.076;2022-12-18T06:46:44;97467.66;;;-7.86;100.00
15229;BME280;7717;47.792;12.076;2022-12-18T06:49:09;97471.69;;;-7.97;100.00
15229;BME280;7717;47.792;12.076;2022-12-18T06:51:35;97473.25;;;-8.08;100.00
15229;BME280;7717;47.792;12.076;2022-12-18T06:54:01;97473.91;;;-8.38;100.00
15229;BME280;7717;47.792;12.076;2022-12-18T06:56:27;97463.19;;;-8.47;100.00
15229;BME280;7717;47.792;12.076;2022-12-18T06:58:53;97475.72;;;-8.65;100.00
15229;BME280;7717;47.792;12.076;2022-12-18T07:01:18;97469.69;;;-8.58;100.00
15229;BME280;7717;47.792;12.076;2022-12-18T07:03:43;97479.28;;;-8.53;100.00
15229;BME280;7717;47.792;12.076;2022-12-18T07:06:17;97478.84;;;-8.76;100.00
15229;BME280;7717;47.792;12.076;2022-12-18T07:08:44;97481.16;;;-8.50;100.00
15229;BME280;7717;47.792;12.076;2022-12-18T07:11:09;97497.22;;;-8.27;100.00
15229;BME280;7717;47.792;12.076;2022-12-18T07:13:35;97487.78;;;-8.12;100.00
15229;BME280;7717;47.792;12.076;2022-12-18T07:16:12;97485.78;;;-8.25;100.00
15229;BME280;7717;47.792;12.076;2022-12-18T07:18:38;97492.19;;;-8.00;100.00
15229;BME280;7717;47.792;12.076;2022-12-18T07:21:08;97483.06;;;-7.90;100.00
15229;BME280;7717;47.792;12.076;2022-12-18T07:23:34;97489.91;;;-7.88;100.00
15229;BME280;7717;47.792;12.076;2022-12-18T07:26:11;97490.91;;;-7.67;100.00
15229;BME280;7717;47.792;12.076;2022-12-18T07:28:38;97499.94;;;-7.48;100.00
15229;BME280;7717;47.792;12.076;2022-12-18T07:31:05;97491.69;;;-7.57;100.00
15229;BME280;7717;47.792;12.076;2022-12-18T07:33:32;97507.16;;;-7.41;100.00
15229;BME280;7717;47.792;12.076;2022-12-18T07:36:05;97514.59;;;-7.51;100.00
15229;BME280;7717;47.792;12.076;2022-12-18T07:38:32;97513.38;;;-7.46;100.00
15229;BME280;7717;47.792;12.076;2022-12-18T07:41:02;97511.72;;;-7.56;100.00
15229;BME280;7717;47.792;12.076;2022-12-18T07:43:28;97515.66;;;-7.39;100.00
15229;BME280;7717;47.792;12.076;2022-12-18T07:45:53;97522.47;;;-7.07;100.00
15229;BME280;7717;47.792;12.076;2022-12-18T07:48:18;97517.03;;;-6.53;100.00
15229;BME280;7717;47.792;12.076;2022-12-18T07:50:44;97513.38;;;-6.67;100.00
15229;BME280;7717;47.792;12.076;2022-12-18T07:53:09;97520.63;;;-6.39;100.00
15229;BME280;7717;47.792;12.076;2022-12-18T07:55:35;97522.09;;;-6.00;100.00
15229;BME280;7717;47.792;12.076;2022-12-18T07:58:02;97515.41;;;-6.01;100.00
15229;BME280;7717;47.792;12.076;2022-12-18T08:00:27;97530.53;;;-5.67;100.00
15229;BME280;7717;47.792;12.076;2022-12-18T08:02:53;97521.91;;;-5.61;100.00
15229;BME280;7717;47.792;12.076;2022-12-18T08:05:19;97519.34;;;-5.30;100.00
15229;BME280;7717;47.792;12.076;2022-12-18T08:07:45;97515.75;;;-5.11;100.00
15229;BME280;7717;47.792;12.076;2022-12-18T08:10:11;97520.00;;;-4.88;100.00
15229;BME280;7717;47.792;12.076;2022-12-18T08:12:37;97517.38;;;-5.12;100.00
15229;BME280;7717;47.792;12.076;2022-12-18T08:15:02;97519.28;;;-4.87;100.00
15229;BME280;7717;47.792;12.076;2022-12-18T08:17:27;97519.66;;;-4.93;100.00
15229;BME280;7717;47.792;12.076;2022-12-18T08:19:53;97522.69;;;-4.75;100.00
15229;BME280;7717;47.792;12.076;2022-12-18T08:22:18;97515.13;;;-4.86;100.00
15229;BME280;7717;47.792;12.076;2022-12-18T08:24:44;97521.00;;;-4.86;100.00
15229;BME280;7717;47.792;12.076;2022-12-18T08:27:10;97517.16;;;-4.71;100.00
15229;BME280;7717;47.792;12.076;2022-12-18T08:29:35;97516.38;;;-4.59;100.00
15229;BME280;7717;47.792;12.076;2022-12-18T08:32:00;97523.72;;;-4.39;100.00
15229;BME280;7717;47.792;12.076;2022-12-18T08:34:26;97517.84;;;-4.39;100.00
15229;BME280;7717;47.792;12.076;2022-12-18T08:36:51;97510.63;;;-4.24;100.00
15229;BME280;7717;47.792;12.076;2022-12-18T08:39:16;97519.31;;;-4.31;100.00
15229;BME280;7717;47.792;12.076;2022-12-18T08:41:42;97511.00;;;-4.08;100.00
15229;BME280;7717;47.792;12.076;2022-12-18T08:44:07;97505.38;;;-3.93;100.00
15229;BME280;7717;47.792;12.076;2022-12-18T08:46:51;97517.09;;;-3.92;100.00
15229;BME280;7717;47.792;12.076;2022-12-18T08:49:17;97511.81;;;-3.62;100.00
15229;BME280;7717;47.792;12.076;2022-12-18T08:51:42;97511.59;;;-3.41;100.00
15229;BME280;7717;47.792;12.076;2022-12-18T08:54:11;97526.19;;;-3.35;100.00
15229;BME280;7717;47.792;12.076;2022-12-18T08:56:36;97512.84;;;-2.99;100.00
15229;BME280;7717;47.792;12.076;2022-12-18T08:59:02;97526.81;;;-3.14;100.00
15229;BME280;7717;47.792;12.076;2022-12-18T09:01:27;97535.84;;;-3.04;100.00
15229;BME280;7717;47.792;12.076;2022-12-18T09:03:53;97530.09;;;-3.15;100.00
15229;BME280;7717;47.792;12.076;2022-12-18T09:06:20;97539.34;;;-3.26;100.00
15229;BME280;7717;47.792;12.076;2022-12-18T09:08:46;97535.97;;;-3.27;100.00
15229;BME280;7717;47.792;12.076;2022-12-18T09:11:23;97541.78;;;-2.79;100.00
15229;BME280;7717;47.792;12.076;2022-12-18T09:13:49;97535.84;;;-2.56;100.00
15229;BME280;7717;47.792;12.076;2022-12-18T09:16:15;97534.25;;;-2.17;100.00
15229;BME280;7717;47.792;12.076;2022-12-18T09:18:40;97531.88;;;-1.63;100.00
15229;BME280;7717;47.792;12.076;2022-12-18T09:21:19;97522.53;;;-2.04;100.00
15229;BME280;7717;47.792;12.076;2022-12-18T09:23:52;97524.75;;;-2.71;100.00
15229;BME280;7717;47.792;12.076;2022-12-18T09:26:18;97530.06;;;-1.91;100.00
15229;BME280;7717;47.792;12.076;2022-12-18T09:28:44;97524.84;;;-1.69;100.00
15229;BME280;7717;47.792;12.076;2022-12-18T09:31:11;97532.81;;;-2.63;100.00
15229;BME280;7717;47.792;12.076;2022-12-18T09:33:37;97525.50;;;-3.09;100.00
15229;BME280;7717;47.792;12.076;2022-12-18T09:36:06;97528.66;;;-3.00;100.00
15229;BME280;7717;47.792;12.076;2022-12-18T09:38:32;97530.16;;;-3.02;100.00
15229;BME280;7717;47.792;12.076;2022-12-18T09:41:03;97524.34;;;-2.77;100.00
15229;BME280;7717;47.792;12.076;2022-12-18T09:43:37;97517.31;;;-2.58;100.00
15229;BME280;7717;47.792;12.076;2022-12-18T09:46:11;97511.47;;;-2.70;100.00
15229;BME280;7717;47.792;12.076;2022-12-18T09:48:44;97504.81;;;-2.69;100.00
15229;BME280;7717;47.792;12.076;2022-12-18T09:51:26;97516.19;;;-2.86;100.00
15229;BME280;7717;47.792;12.076;2022-12-18T09:53:57;97516.34;;;-2.35;100.00
15229;BME280;7717;47.792;12.076;2022-12-18T09:56:27;97522.13;;;-2.10;100.00
15229;BME280;7717;47.792;12.076;2022-12-18T09:59:01;97507.78;;;-2.00;100.00
15229;BME280;7717;47.792;12.076;2022-12-18T10:01:28;97500.75;;;-1.92;100.00
15229;BME280;7717;47.792;12.076;2022-12-18T10:03:55;97504.13;;;-2.55;100.00
15229;BME280;7717;47.792;12.076;2022-12-18T10:06:42;97514.06;;;-3.17;100.00
15229;BME280;7717;47.792;12.076;2022-12-18T10:09:31;97529.44;;;-3.24;100.00
15229;BME280;7717;47.792;12.076;2022-12-18T10:12:08;97509.38;;;-2.89;100.00
15229;BME280;7717;47.792;12.076;2022-12-18T10:14:51;97515.75;;;-2.44;100.00
15229;BME280;7717;47.792;12.076;2022-12-18T10:20:33;97495.09;;;-1.49;100.00
15229;BME280;7717;47.792;12.076;2022-12-18T10:26:06;97496.97;;;-2.37;100.00
15229;BME280;7717;47.792;12.076;2022-12-18T10:28:34;97487.19;;;-2.46;100.00
15229;BME280;7717;47.792;12.076;2022-12-18T10:31:01;97482.84;;;-2.23;100.00
15229;BME280;7717;47.792;12.076;2022-12-18T10:33:31;97470.94;;;-1.87;100.00
15229;BME280;7717;47.792;12.076;2022-12-18T10:35:58;97466.41;;;-1.66;100.00
15229;BME280;7717;47.792;12.076;2022-12-18T10:38:29;97464.50;;;-1.43;100.00
15229;BME280;7717;47.792;12.076;2022-12-18T10:43:38;97461.78;;;-1.73;100.00
15229;BME280;7717;47.792;12.076;2022-12-18T10:46:12;97467.97;;;-1.68;100.00
15229;BME280;7717;47.792;12.076;2022-12-18T10:48:52;97456.88;;;-1.45;100.00
15229;BME280;7717;47.792;12.076;2022-12-18T10:51:28;97445.50;;;-0.98;100.00
15229;BME280;7717;47.792;12.076;2022-12-18T10:54:01;97443.09;;;-0.82;100.00
15229;BME280;7717;47.792;12.076;2022-12-18T10:56:29;97430.78;;;-0.92;100.00
15229;BME280;7717;47.792;12.076;2022-12-18T10:59:06;97441.78;;;-1.32;100.00
15229;BME280;7717;47.792;12.076;2022-12-18T11:01:57;97442.22;;;-1.11;100.00
15229;BME280;7717;47.792;12.076;2022-12-18T11:04:28;97442.03;;;-1.14;100.00
15229;BME280;7717;47.792;12.076;2022-12-18T11:07:08;97426.50;;;-1.35;100.00
15229;BME280;7717;47.792;12.076;2022-12-18T11:09:35;97424.59;;;-0.69;100.00
15229;BME280;7717;47.792;12.076;2022-12-18T11:12:04;97431.34;;;-0.68;100.00
15229;BME280;7717;47.792;12.076;2022-12-18T11:14:34;97421.03;;;0.01;100.00
15229;BME280;7717;47.792;12.076;2022-12-18T11:17:01;97406.50;;;0.26;100.00
15229;BME280;7717;47.792;12.076;2022-12-18T11:19:31;97412.94;;;-0.82;100.00
15229;BME280;7717;47.792;12.076;2022-12-18T11:21:57;97404.59;;;0.22;100.00
15229;BME280;7717;47.792;12.076;2022-12-18T11:24:35;97394.16;;;0.62;100.00
15229;BME280;7717;47.792;12.076;2022-12-18T11:27:03;97402.72;;;-0.12;100.00
15229;BME280;7717;47.792;12.076;2022-12-18T11:32:36;97430.72;;;-0.79;100.00
15229;BME280;7717;47.792;12.076;2022-12-18T11:35:20;97435.53;;;-0.68;100.00
15229;BME280;7717;47.792;12.076;2022-12-18T11:37:54;97436.19;;;-0.86;100.00
15229;BME280;7717;47.792;12.076;2022-12-18T11:40:29;97436.09;;;-0.87;100.00
15229;BME280;7717;47.792;12.076;2022-12-18T11:43:02;97429.13;;;-0.63;100.00
15229;BME280;7717;47.792;12.076;2022-12-18T11:45:34;97424.13;;;-0.48;100.00
15229;BME280;7717;47.792;12.076;2022-12-18T11:48:27;97447.88;;;-1.41;100.00
15229;BME280;7717;47.792;12.076;2022-12-18T11:50:56;97449.28;;;-1.18;100.00
15229;BME280;7717;47.792;12.076;2022-12-18T11:53:22;97453.03;;;-1.12;100.00
15229;BME280;7717;47.792;12.076;2022-12-18T11:59:09;97436.09;;;-1.01;100.00
15229;BME280;7717;47.792;12.076;2022-12-18T12:01:52;97422.13;;;-1.11;100.00
15229;BME280;7717;47.792;12.076;2022-12-18T12:07:24;97448.44;;;-1.46;100.00
15229;BME280;7717;47.792;12.076;2022-12-18T12:13:14;97452.59;;;-1.33;100.00
15229;BME280;7717;47.792;12.076;2022-12-18T12:21:17;97444.69;;;-1.52;100.00
15229;BME280;7717;47.792;12.076;2022-12-18T12:26:33;97456.16;;;-1.96;100.00
15229;BME280;7717;47.792;12.076;2022-12-18T12:40:05;97436.69;;;-1.87;100.00
15229;BME280;7717;47.792;12.076;2022-12-18T12:42:45;97436.09;;;-1.96;100.00
15229;BME280;7717;47.792;12.076;2022-12-18T12:45:46;97434.56;;;-1.81;100.00
15229;BME280;7717;47.792;12.076;2022-12-18T12:51:22;97430.88;;;-1.99;100.00
15229;BME280;7717;47.792;12.076;2022-12-18T12:53:49;97422.09;;;-2.06;100.00
15229;BME280;7717;47.792;12.076;2022-12-18T12:56:17;97417.53;;;-2.25;100.00
15229;BME280;7717;47.792;12.076;2022-12-18T12:59:00;97437.47;;;-2.65;100.00
15229;BME280;7717;47.792;12.076;2022-12-18T13:01:39;97421.31;;;-2.18;100.00
15229;BME280;7717;47.792;12.076;2022-12-18T13:06:46;97422.16;;;-2.18;100.00
15229;BME280;7717;47.792;12.076;2022-12-18T13:09:13;97423.88;;;-2.30;100.00
15229;BME280;7717;47.792;12.076;2022-12-18T13:11:41;97427.78;;;-2.22;100.00
15229;BME280;7717;47.792;12.076;2022-12-18T13:14:31;97420.47;;;-1.78;100.00
15229;BME280;7717;47.792;12.076;2022-12-18T13:22:36;97431.16;;;-2.08;100.00
15229;BME280;7717;47.792;12.076;2022-12-18T13:25:04;97418.81;;;-1.91;100.00
15229;BME280;7717;47.792;12.076;2022-12-18T13:28:15;97424.78;;;-1.89;100.00
15229;BME280;7717;47.792;12.076;2022-12-18T13:30:42;97419.50;;;-1.67;100.00
15229;BME280;7717;47.792;12.076;2022-12-18T13:41:02;97430.50;;;-1.92;100.00
15229;BME280;7717;47.792;12.076;2022-12-18T13:43:30;97430.00;;;-2.00;100.00
15229;BME280;7717;47.792;12.076;2022-12-18T13:48:52;97445.84;;;-2.39;100.00
15229;BME280;7717;47.792;12.076;2022-12-18T13:51:19;97454.91;;;-2.41;100.00
15229;BME280;7717;47.792;12.076;2022-12-18T13:53:51;97460.38;;;-2.72;100.00
15229;BME280;7717;47.792;12.076;2022-12-18T13:56:23;97469.63;;;-3.08;100.00
15229;BME280;7717;47.792;12.076;2022-12-18T14:01:57;97469.94;;;-2.92;100.00
15229;BME280;7717;47.792;12.076;2022-12-18T14:06:55;97472.56;;;-3.02;100.00
15229;BME280;7717;47.792;12.076;2022-12-18T14:09:25;97468.28;;;-3.28;100.00
15229;BME280;7717;47.792;12.076;2022-12-18T14:11:51;97467.91;;;-3.09;100.00
15229;BME280;7717;47.792;12.076;2022-12-18T14:14:18;97470.69;;;-2.93;100.00
15229;BME280;7717;47.792;12.076;2022-12-18T14:16:45;97477.66;;;-3.49;100.00
15229;BME280;7717;47.792;12.076;2022-12-18T14:19:14;97487.13;;;-3.45;100.00